Time;durP1;ratioP1;P1;durP2;ratioP2;P2;SDS_P1;SDS_P2;PMS_P1;PMS_P2;Temp;Humidity;BMP_temperature;BMP_pressure;BME280_temperature;BME280_humidity;BME280_pressure;Samples;Min_cycle;Max_cycle;Signal;HPM_P1;HPM_P2
2024/01/14 00:01:44;;;;;;;17.08;1.42;;;3.50;99.90;;;;;;5085896;28;20060;-64
2024/01/14 00:04:10;;;;;;;12.45;1.25;;;3.50;99.90;;;;;;5083078;28;20075;-63
2024/01/14 00:06:35;;;;;;;10.38;1.92;;;3.50;99.90;;;;;;5084060;28;20044;-63
2024/01/14 00:09:01;;;;;;;13.02;1.40;;;3.50;99.90;;;;;;5085155;28;20097;-63
2024/01/14 00:11:27;;;;;;;14.18;1.10;;;3.50;99.90;;;;;;5082691;28;20529;-63
2024/01/14 00:13:52;;;;;;;13.50;2.35;;;3.50;99.90;;;;;;5080737;28;20040;-63
2024/01/14 00:16:18;;;;;;;12.38;1.60;;;3.50;99.90;;;;;;5085488;28;20056;-64
2024/01/14 00:18:43;;;;;;;14.02;1.23;;;3.50;99.90;;;;;;5080454;28;20432;-63
2024/01/14 00:21:09;;;;;;;10.27;1.30;;;3.40;99.90;;;;;;5084815;28;20047;-64
2024/01/14 00:23:35;;;;;;;15.65;1.80;;;3.50;99.90;;;;;;5085991;28;20582;-63
2024/01/14 00:26:01;;;;;;;10.93;1.50;;;3.50;99.90;;;;;;5080246;28;20036;-63
2024/01/14 00:28:27;;;;;;;13.73;1.55;;;3.50;99.90;;;;;;5085259;28;20448;-63
2024/01/14 00:30:53;;;;;;;14.45;1.52;;;3.50;99.90;;;;;;5086500;28;20044;-63
2024/01/14 00:33:19;;;;;;;11.95;1.13;;;3.50;99.90;;;;;;5111267;27;20101;-63
2024/01/14 00:35:45;;;;;;;8.93;1.00;;;3.60;99.90;;;;;;5083520;28;20055;-63
2024/01/14 00:38:11;;;;;;;9.30;1.17;;;3.60;99.90;;;;;;5082123;28;20470;-63
2024/01/14 00:40:37;;;;;;;15.15;1.58;;;3.60;99.90;;;;;;5085878;28;20077;-63
2024/01/14 00:43:03;;;;;;;13.70;2.03;;;3.70;99.90;;;;;;5083114;28;20082;-63
2024/01/14 00:45:29;;;;;;;18.45;1.58;;;3.70;99.90;;;;;;5081953;28;20439;-63
2024/01/14 00:47:54;;;;;;;10.90;1.13;;;3.70;99.90;;;;;;5087695;28;20405;-63
2024/01/14 00:50:20;;;;;;;11.27;1.42;;;3.70;99.90;;;;;;5087980;28;20046;-62
2024/01/14 00:52:46;;;;;;;11.23;1.25;;;3.70;99.90;;;;;;5082731;28;20132;-63
2024/01/14 00:55:11;;;;;;;12.60;1.27;;;3.70;99.90;;;;;;5070606;28;20127;-63
2024/01/14 00:57:37;;;;;;;12.77;1.50;;;3.70;99.90;;;;;;5087072;28;20081;-63
2024/01/14 01:00:05;;;;;;;9.32;1.10;;;3.70;99.90;;;;;;5085465;28;20040;-63
2024/01/14 01:02:31;;;;;;;12.07;0.98;;;3.70;99.90;;;;;;5097711;27;20086;-63
2024/01/14 01:04:56;;;;;;;13.70;1.98;;;3.70;99.90;;;;;;5058882;28;20033;-63
2024/01/14 01:07:22;;;;;;;9.07;1.10;;;3.70;99.90;;;;;;5076635;28;20036;-63
2024/01/14 01:09:47;;;;;;;6.13;0.90;;;3.70;99.90;;;;;;5079240;28;20047;-63
2024/01/14 01:12:13;;;;;;;10.80;1.30;;;3.80;99.90;;;;;;5078153;28;20036;-63
2024/01/14 01:14:39;;;;;;;12.68;1.20;;;3.70;99.90;;;;;;5077535;28;20039;-63
2024/01/14 01:17:04;;;;;;;7.68;0.80;;;3.80;99.90;;;;;;5074490;28;20415;-63
2024/01/14 01:19:30;;;;;;;12.10;1.30;;;3.90;99.90;;;;;;5076063;28;20048;-63
2024/01/14 01:21:55;;;;;;;6.72;0.95;;;3.90;99.90;;;;;;5083613;28;20127;-63
2024/01/14 01:24:21;;;;;;;6.00;1.00;;;3.90;99.90;;;;;;5077934;28;20035;-63
2024/01/14 01:26:47;;;;;;;7.07;0.68;;;4.00;99.90;;;;;;5080415;28;20048;-64
2024/01/14 01:29:12;;;;;;;13.95;0.95;;;4.00;99.90;;;;;;5079108;28;20032;-63
2024/01/14 01:31:38;;;;;;;8.02;0.80;;;4.00;99.90;;;;;;5109514;27;20163;-62
2024/01/14 01:34:03;;;;;;;9.68;1.48;;;4.00;99.90;;;;;;5074742;28;20050;-63
2024/01/14 01:36:29;;;;;;;5.55;0.50;;;4.00;99.90;;;;;;5074458;28;20184;-63
2024/01/14 01:38:55;;;;;;;15.05;1.83;;;4.00;99.90;;;;;;5077201;28;20043;-63
2024/01/14 01:41:22;;;;;;;13.27;2.53;;;3.90;99.90;;;;;;5079863;28;20044;-63
2024/01/14 01:43:47;;;;;;;9.35;1.40;;;4.00;99.90;;;;;;5109809;27;20044;-63
2024/01/14 01:46:14;;;;;;;12.05;1.70;;;3.90;99.90;;;;;;5074054;28;20614;-62
2024/01/14 01:48:39;;;;;;;10.77;1.30;;;4.00;99.90;;;;;;5072610;28;20039;-63
2024/01/14 01:51:06;;;;;;;8.70;1.48;;;4.00;99.90;;;;;;5076956;28;20048;-63
2024/01/14 01:53:31;;;;;;;14.35;1.38;;;3.90;99.90;;;;;;5080223;28;20032;-63
2024/01/14 01:55:57;;;;;;;9.27;1.95;;;4.00;99.90;;;;;;5077310;28;20089;-63
2024/01/14 01:58:23;;;;;;;11.55;2.80;;;4.00;99.90;;;;;;5074008;28;20474;-64
2024/01/14 02:00:50;;;;;;;14.48;0.98;;;4.00;99.90;;;;;;5077557;28;20100;-63
2024/01/14 02:03:16;;;;;;;11.05;0.80;;;4.00;99.90;;;;;;5074168;28;20036;-63
2024/01/14 02:05:44;;;;;;;6.85;1.63;;;4.00;99.90;;;;;;5078405;28;20040;-63
2024/01/14 02:08:10;;;;;;;12.45;1.27;;;3.90;99.90;;;;;;5076074;28;20140;-63
2024/01/14 02:10:36;;;;;;;10.60;1.48;;;3.90;99.90;;;;;;5081258;28;20044;-63
2024/01/14 02:13:03;;;;;;;7.40;0.70;;;3.90;99.90;;;;;;5073148;28;20181;-63
2024/01/14 02:15:29;;;;;;;9.38;1.60;;;3.80;99.90;;;;;;5078187;28;20088;-63
2024/01/14 02:17:54;;;;;;;17.02;2.40;;;3.70;99.90;;;;;;5075715;28;20035;-62
2024/01/14 02:20:20;;;;;;;10.45;1.15;;;3.70;99.90;;;;;;5076972;28;20043;-63
2024/01/14 02:22:48;;;;;;;11.43;1.25;;;3.60;99.90;;;;;;5083894;28;20044;-63
2024/01/14 02:25:14;;;;;;;10.98;1.25;;;3.60;99.90;;;;;;5083931;28;20040;-64
2024/01/14 02:27:40;;;;;;;9.23;1.08;;;3.60;99.90;;;;;;5083740;28;20117;-63
2024/01/14 02:30:09;;;;;;;11.57;1.67;;;3.60;99.90;;;;;;5080073;28;20075;-63
2024/01/14 02:32:38;;;;;;;8.82;1.27;;;3.60;99.90;;;;;;5084918;28;20044;-63
2024/01/14 02:35:05;;;;;;;13.05;1.17;;;3.60;99.90;;;;;;5085218;28;20491;-63
2024/01/14 02:37:32;;;;;;;10.85;1.27;;;3.60;99.90;;;;;;5084374;28;20423;-63
2024/01/14 02:39:58;;;;;;;6.53;0.95;;;3.60;99.90;;;;;;5083712;28;20028;-63
2024/01/14 02:42:23;;;;;;;14.27;1.05;;;3.60;99.90;;;;;;5084436;28;20081;-63
2024/01/14 02:44:49;;;;;;;11.40;1.35;;;3.60;99.90;;;;;;5079181;28;20545;-64
2024/01/14 02:47:15;;;;;;;8.95;1.10;;;3.60;99.90;;;;;;5080525;28;20044;-63
2024/01/14 02:49:40;;;;;;;11.48;1.50;;;3.60;99.90;;;;;;5081416;28;20043;-63
2024/01/14 02:52:06;;;;;;;13.15;1.73;;;3.60;99.90;;;;;;5083756;28;20043;-62
2024/01/14 02:54:31;;;;;;;7.43;1.17;;;3.60;99.90;;;;;;5087077;28;20039;-63
2024/01/14 02:56:57;;;;;;;10.70;1.25;;;3.60;99.90;;;;;;5081683;28;20158;-63
2024/01/14 02:59:22;;;;;;;8.98;1.05;;;3.60;99.90;;;;;;5112432;27;20058;-63
2024/01/14 03:01:48;;;;;;;14.75;1.92;;;3.60;99.90;;;;;;5082070;28;20545;-63
2024/01/14 03:04:14;;;;;;;16.38;1.77;;;3.60;99.90;;;;;;5075936;28;20044;-64
2024/01/14 03:06:39;;;;;;;11.63;1.50;;;3.70;99.90;;;;;;5082363;28;20126;-63
2024/01/14 03:09:06;;;;;;;12.48;1.35;;;3.60;99.90;;;;;;5085823;28;20131;-63
2024/01/14 03:11:35;;;;;;;7.03;0.90;;;3.50;99.90;;;;;;5083725;28;20509;-63
2024/01/14 03:14:01;;;;;;;8.52;1.10;;;3.50;99.90;;;;;;5071345;28;20043;-63
2024/01/14 03:16:27;;;;;;;8.80;1.35;;;3.50;99.90;;;;;;5081768;28;20036;-63
2024/01/14 03:18:52;;;;;;;10.60;1.98;;;3.40;99.90;;;;;;5082865;28;20047;-62
2024/01/14 03:21:18;;;;;;;11.70;1.25;;;3.40;99.90;;;;;;5083636;28;20028;-63
2024/01/14 03:23:45;;;;;;;9.18;1.17;;;3.40;99.90;;;;;;5119241;27;20051;-64
2024/01/14 03:26:10;;;;;;;9.32;0.82;;;3.30;99.90;;;;;;5081999;28;20482;-63
2024/01/14 03:28:36;;;;;;;11.48;1.23;;;3.30;99.90;;;;;;5084256;28;20046;-64
2024/01/14 03:31:01;;;;;;;9.65;1.17;;;3.10;99.90;;;;;;5083234;28;20040;-63
2024/01/14 03:33:27;;;;;;;16.73;1.88;;;3.20;99.90;;;;;;5082616;28;20054;-63
2024/01/14 03:35:52;;;;;;;14.88;1.40;;;3.10;99.90;;;;;;5084201;28;20115;-64
2024/01/14 03:38:18;;;;;;;12.40;1.08;;;3.20;99.90;;;;;;5084950;28;20032;-63
2024/01/14 03:40:44;;;;;;;16.35;1.42;;;3.20;99.90;;;;;;5113440;27;20127;-63
2024/01/14 03:43:10;;;;;;;8.65;1.10;;;3.20;99.90;;;;;;5085752;28;20066;-64
2024/01/14 03:45:35;;;;;;;10.68;1.27;;;3.20;99.90;;;;;;5079071;28;20036;-63
2024/01/14 03:48:01;;;;;;;12.38;1.15;;;3.20;99.90;;;;;;5083977;28;20081;-63
2024/01/14 03:50:27;;;;;;;9.35;0.85;;;3.20;99.90;;;;;;5084634;28;20070;-62
2024/01/14 03:52:53;;;;;;;15.02;1.27;;;3.20;99.90;;;;;;5083217;28;20028;-63
2024/01/14 03:55:19;;;;;;;15.57;2.35;;;3.20;99.90;;;;;;5083303;28;20032;-63
2024/01/14 03:57:44;;;;;;;13.30;1.58;;;3.10;99.90;;;;;;5081850;28;20170;-64
2024/01/14 04:00:11;;;;;;;20.23;3.47;;;3.20;99.90;;;;;;5082114;28;20039;-63
2024/01/14 04:02:36;;;;;;;12.70;0.98;;;3.20;99.90;;;;;;5112830;27;20028;-63
2024/01/14 04:05:03;;;;;;;13.98;1.77;;;3.20;99.90;;;;;;5083121;28;20036;-63
2024/01/14 04:07:28;;;;;;;9.38;1.05;;;3.20;99.90;;;;;;5080137;28;20505;-64
2024/01/14 04:09:54;;;;;;;14.43;1.33;;;3.20;99.90;;;;;;5085209;28;20048;-63
2024/01/14 04:12:20;;;;;;;13.23;1.45;;;3.20;99.90;;;;;;5112735;27;20058;-62
2024/01/14 04:14:45;;;;;;;15.07;1.48;;;3.20;99.90;;;;;;5084817;28;20416;-63
2024/01/14 04:17:11;;;;;;;10.07;1.20;;;3.20;99.90;;;;;;5083659;28;20044;-63
2024/01/14 04:19:37;;;;;;;12.30;1.27;;;3.20;99.90;;;;;;5083272;28;20040;-63
2024/01/14 04:22:03;;;;;;;13.30;1.35;;;3.20;99.90;;;;;;5081639;28;20070;-62
2024/01/14 04:24:29;;;;;;;7.22;0.82;;;3.10;99.90;;;;;;5087944;28;20038;-63
2024/01/14 04:26:55;;;;;;;9.07;1.70;;;3.10;99.90;;;;;;5086273;28;20051;-63
2024/01/14 04:29:20;;;;;;;9.80;1.25;;;3.10;99.90;;;;;;5086612;28;20044;-63
2024/01/14 04:31:46;;;;;;;14.50;2.05;;;3.10;99.90;;;;;;5086809;28;20123;-63
2024/01/14 04:34:12;;;;;;;10.80;1.10;;;3.10;99.90;;;;;;5087417;28;20042;-63
2024/01/14 04:36:37;;;;;;;9.20;1.05;;;3.10;99.90;;;;;;5089825;28;22318;-63
2024/01/14 04:39:04;;;;;;;14.38;1.77;;;3.10;99.90;;;;;;5087240;28;20166;-63
2024/01/14 04:41:29;;;;;;;11.57;1.40;;;3.20;99.90;;;;;;5088895;28;20040;-63
2024/01/14 04:43:55;;;;;;;17.38;1.15;;;3.20;99.90;;;;;;5091554;28;20039;-63
2024/01/14 04:46:20;;;;;;;17.33;1.52;;;3.20;99.90;;;;;;5119347;27;20691;-62
2024/01/14 04:48:46;;;;;;;10.98;1.45;;;3.20;99.90;;;;;;5082589;28;20044;-62
2024/01/14 04:51:12;;;;;;;9.75;1.20;;;3.20;99.90;;;;;;5086153;28;20555;-63
2024/01/14 04:53:38;;;;;;;7.97;1.35;;;3.20;99.90;;;;;;5084871;28;20150;-63
2024/01/14 04:56:09;;;;;;;11.23;1.38;;;3.20;99.90;;;;;;5099075;27;20051;-63
2024/01/14 04:58:36;;;;;;;11.98;1.48;;;3.20;99.90;;;;;;5085557;28;20028;-62
2024/01/14 05:01:02;;;;;;;16.88;1.25;;;3.20;99.90;;;;;;5113330;27;20438;-63
2024/01/14 05:03:27;;;;;;;11.90;0.63;;;3.20;99.90;;;;;;5085728;28;20055;-63
2024/01/14 05:05:53;;;;;;;9.52;1.25;;;3.20;99.90;;;;;;5090577;28;20031;-63
2024/01/14 05:08:19;;;;;;;11.88;1.13;;;3.20;99.90;;;;;;5084399;28;20051;-63
2024/01/14 05:10:45;;;;;;;11.90;1.30;;;3.20;99.90;;;;;;5081976;28;20441;-63
2024/01/14 05:13:11;;;;;;;9.13;1.77;;;3.10;99.90;;;;;;5087274;28;20057;-63
2024/01/14 05:15:38;;;;;;;10.30;1.15;;;3.10;99.90;;;;;;5084890;28;20059;-63
2024/01/14 05:18:04;;;;;;;14.43;2.33;;;3.10;99.90;;;;;;5084529;28;20520;-63
2024/01/14 05:20:29;;;;;;;8.05;0.77;;;3.10;99.90;;;;;;5114139;27;20044;-63
2024/01/14 05:22:55;;;;;;;7.20;1.13;;;3.00;99.90;;;;;;5087405;28;20131;-63
2024/01/14 05:25:21;;;;;;;12.27;1.05;;;3.00;99.90;;;;;;5085692;28;20049;-63
2024/01/14 05:27:47;;;;;;;6.82;0.80;;;3.00;99.90;;;;;;5085987;28;20051;-63
2024/01/14 05:30:13;;;;;;;11.27;0.60;;;3.00;99.90;;;;;;5088441;28;20056;-63
2024/01/14 05:32:39;;;;;;;9.65;1.13;;;2.90;99.90;;;;;;5088665;28;20052;-63
2024/01/14 05:35:05;;;;;;;4.35;0.60;;;2.90;99.90;;;;;;5085621;28;20491;-62
2024/01/14 05:37:31;;;;;;;11.55;0.93;;;2.90;99.90;;;;;;5072146;28;20044;-63
2024/01/14 05:39:57;;;;;;;12.52;1.25;;;2.90;99.90;;;;;;5089054;28;20043;-63
2024/01/14 05:42:23;;;;;;;6.05;0.90;;;2.90;99.90;;;;;;5087579;28;20085;-63
2024/01/14 05:44:48;;;;;;;14.65;2.38;;;2.90;99.90;;;;;;5082485;28;20040;-62
2024/01/14 05:47:14;;;;;;;10.48;1.42;;;2.90;99.90;;;;;;5081762;28;20040;-63
2024/01/14 05:49:39;;;;;;;8.10;1.33;;;3.00;99.90;;;;;;5087088;28;20070;-64
2024/01/14 05:52:05;;;;;;;11.63;0.65;;;3.00;99.90;;;;;;5082159;28;20051;-63
2024/01/14 05:54:31;;;;;;;7.18;0.75;;;2.90;99.90;;;;;;5087323;28;20043;-63
2024/01/14 05:56:57;;;;;;;6.05;0.70;;;3.00;99.90;;;;;;5082255;28;20487;-63
2024/01/14 05:59:23;;;;;;;8.85;0.80;;;3.00;99.90;;;;;;5116413;27;20040;-63
2024/01/14 06:01:49;;;;;;;7.13;0.70;;;3.00;99.90;;;;;;5084773;28;20042;-63
2024/01/14 06:04:15;;;;;;;6.85;0.60;;;3.00;99.90;;;;;;5083538;28;20036;-64
2024/01/14 06:06:40;;;;;;;6.65;0.85;;;3.10;99.90;;;;;;5081586;28;20140;-63
2024/01/14 06:09:06;;;;;;;6.30;0.47;;;3.00;99.90;;;;;;5085925;28;20049;-63
2024/01/14 06:11:32;;;;;;;6.32;0.55;;;3.10;99.90;;;;;;5081982;28;20032;-63
2024/01/14 06:13:57;;;;;;;7.68;1.20;;;3.10;99.90;;;;;;5083338;28;20028;-63
2024/01/14 06:16:24;;;;;;;11.23;2.45;;;3.20;99.90;;;;;;5087841;28;20032;-62
2024/01/14 06:18:50;;;;;;;4.32;0.50;;;3.20;99.90;;;;;;5073259;28;20040;-63
2024/01/14 06:21:16;;;;;;;9.20;0.80;;;3.20;99.90;;;;;;5083865;28;20048;-63
2024/01/14 06:23:41;;;;;;;5.93;0.60;;;3.20;99.90;;;;;;5085229;28;20044;-63
2024/01/14 06:26:07;;;;;;;8.73;1.00;;;3.20;99.90;;;;;;5112142;27;20043;-63
2024/01/14 06:28:33;;;;;;;11.32;0.68;;;3.20;99.90;;;;;;5083925;28;20075;-63
2024/01/14 06:30:58;;;;;;;5.13;0.55;;;3.20;99.90;;;;;;5082613;28;21474;-63
2024/01/14 06:33:24;;;;;;;12.38;1.25;;;3.20;99.90;;;;;;5082566;28;20046;-63
2024/01/14 06:35:50;;;;;;;4.55;0.75;;;3.20;99.90;;;;;;5084224;28;20044;-63
2024/01/14 06:38:15;;;;;;;8.45;1.00;;;3.20;99.90;;;;;;5081438;28;20115;-62
2024/01/14 06:40:41;;;;;;;9.73;0.70;;;3.20;99.90;;;;;;5080822;28;20039;-62
2024/01/14 06:43:08;;;;;;;8.82;0.80;;;3.20;99.90;;;;;;5079072;28;20051;-63
2024/01/14 06:45:33;;;;;;;10.38;1.00;;;3.20;99.90;;;;;;5115173;27;20036;-63
2024/01/14 06:47:59;;;;;;;9.38;0.90;;;3.20;99.90;;;;;;5086863;28;20050;-63
2024/01/14 06:50:25;;;;;;;9.07;0.90;;;3.20;99.90;;;;;;5083075;28;20452;-63
2024/01/14 06:52:50;;;;;;;8.77;1.17;;;3.20;99.90;;;;;;5083119;28;20058;-62
2024/01/14 06:55:16;;;;;;;5.18;0.55;;;3.20;99.90;;;;;;5085677;28;20481;-63
2024/01/14 06:57:42;;;;;;;10.13;0.98;;;3.20;99.90;;;;;;5083078;28;20128;-62
2024/01/14 07:00:08;;;;;;;12.55;1.15;;;3.20;99.90;;;;;;5114533;27;20089;-63
2024/01/14 07:02:34;;;;;;;6.32;0.60;;;3.20;99.90;;;;;;5080963;28;20070;-63
2024/01/14 07:05:00;;;;;;;6.93;0.75;;;3.10;99.90;;;;;;5081816;28;20689;-63
2024/01/14 07:07:27;;;;;;;6.47;0.60;;;3.10;99.90;;;;;;5111458;27;20040;-62
2024/01/14 07:09:53;;;;;;;7.57;1.60;;;3.00;99.90;;;;;;5077751;28;20046;-63
2024/01/14 07:12:18;;;;;;;12.15;0.73;;;3.00;99.90;;;;;;5081307;28;20653;-63
2024/01/14 07:14:44;;;;;;;6.20;0.60;;;3.00;99.90;;;;;;5113841;27;20051;-63
2024/01/14 07:17:09;;;;;;;8.32;1.80;;;2.90;99.90;;;;;;5111646;27;20048;-63
2024/01/14 07:19:35;;;;;;;13.13;0.70;;;2.90;99.90;;;;;;5083652;28;20086;-63
2024/01/14 07:22:02;;;;;;;6.55;0.50;;;2.90;99.90;;;;;;5079717;28;20044;-63
2024/01/14 07:24:28;;;;;;;7.38;1.00;;;2.90;99.90;;;;;;5079194;28;20551;-63
2024/01/14 07:26:53;;;;;;;6.07;0.52;;;2.90;99.90;;;;;;5077665;28;20044;-63
2024/01/14 07:29:19;;;;;;;12.57;1.10;;;2.80;99.90;;;;;;5079719;28;20077;-63
2024/01/14 07:31:45;;;;;;;7.10;0.50;;;2.90;99.90;;;;;;5081993;28;20036;-62
2024/01/14 07:34:11;;;;;;;6.20;0.68;;;2.80;99.90;;;;;;5083305;28;20036;-63
2024/01/14 07:36:36;;;;;;;4.25;0.60;;;2.90;99.90;;;;;;5084460;28;20040;-63
2024/01/14 07:39:04;;;;;;;9.43;0.73;;;3.00;99.90;;;;;;5092663;28;20513;-63
2024/01/14 07:41:30;;;;;;;6.53;0.50;;;3.00;99.90;;;;;;5077509;28;20123;-62
2024/01/14 07:43:56;;;;;;;5.40;0.40;;;3.00;99.90;;;;;;5085622;28;20525;-63
2024/01/14 07:46:21;;;;;;;7.82;0.80;;;3.10;99.90;;;;;;5082005;28;20063;-63
2024/01/14 07:48:47;;;;;;;8.73;0.65;;;3.10;99.90;;;;;;5080047;28;20040;-63
2024/01/14 07:51:13;;;;;;;11.25;0.55;;;3.10;99.90;;;;;;5081922;28;21001;-63
2024/01/14 07:53:39;;;;;;;7.18;0.68;;;3.20;99.90;;;;;;5080804;28;20040;-63
2024/01/14 07:56:05;;;;;;;11.65;1.20;;;3.20;99.90;;;;;;5079008;28;20040;-63
2024/01/14 07:58:30;;;;;;;11.25;1.25;;;3.30;99.90;;;;;;5083636;28;20067;-63
2024/01/14 08:00:56;;;;;;;9.50;0.55;;;3.30;99.90;;;;;;5115146;27;20437;-63
2024/01/14 08:03:22;;;;;;;7.55;0.95;;;3.30;99.90;;;;;;5084840;28;20504;-63
2024/01/14 08:05:47;;;;;;;9.57;0.57;;;3.30;99.90;;;;;;5088435;28;20032;-63
2024/01/14 08:08:13;;;;;;;5.57;0.55;;;3.30;99.90;;;;;;5084282;28;20044;-63
2024/01/14 08:10:38;;;;;;;10.45;0.70;;;3.40;99.90;;;;;;5082369;28;20047;-64
2024/01/14 08:13:04;;;;;;;7.10;0.80;;;3.40;99.90;;;;;;5084697;28;20054;-63
2024/01/14 08:15:30;;;;;;;6.80;0.52;;;3.40;99.90;;;;;;5084226;28;20488;-63
2024/01/14 08:17:56;;;;;;;4.82;0.52;;;3.40;99.90;;;;;;5087235;28;20044;-62
2024/01/14 08:20:21;;;;;;;7.32;1.50;;;3.50;99.90;;;;;;5088551;28;20619;-63
2024/01/14 08:22:47;;;;;;;5.32;0.30;;;3.50;99.90;;;;;;5088601;28;20033;-63
2024/01/14 08:25:13;;;;;;;8.45;0.57;;;3.50;99.90;;;;;;5090712;28;20401;-63
2024/01/14 08:27:39;;;;;;;7.40;0.85;;;3.50;99.90;;;;;;5090437;28;20030;-64
2024/01/14 08:30:05;;;;;;;5.57;0.45;;;3.50;99.90;;;;;;5084860;28;20044;-63
2024/01/14 08:32:31;;;;;;;6.80;0.50;;;3.50;99.90;;;;;;5086282;28;20040;-63
2024/01/14 08:34:57;;;;;;;13.55;1.85;;;3.50;99.90;;;;;;5085111;28;20389;-63
2024/01/14 08:37:26;;;;;;;5.82;0.63;;;3.50;99.90;;;;;;5086117;28;20051;-63
2024/01/14 08:39:52;;;;;;;4.00;0.70;;;3.40;99.90;;;;;;5117218;27;20389;-63
2024/01/14 08:42:17;;;;;;;8.40;0.73;;;3.40;99.90;;;;;;5070460;28;20127;-63
2024/01/14 08:44:43;;;;;;;4.72;0.90;;;3.40;99.90;;;;;;5087388;28;20028;-63
2024/01/14 08:47:09;;;;;;;7.82;0.40;;;3.40;99.90;;;;;;5087708;28;20036;-63
2024/01/14 08:49:34;;;;;;;5.68;0.47;;;3.40;99.90;;;;;;5086273;28;20490;-63
2024/01/14 08:52:01;;;;;;;1.95;0.30;;;3.50;99.90;;;;;;5084432;28;20075;-63
2024/01/14 08:54:30;;;;;;;9.43;0.60;;;3.40;99.90;;;;;;5088339;28;20547;-64
2024/01/14 08:56:56;;;;;;;5.97;0.40;;;3.50;99.90;;;;;;5088713;28;20135;-63
2024/01/14 08:59:22;;;;;;;7.25;0.60;;;3.40;99.90;;;;;;5086234;28;20106;-65
2024/01/14 09:01:47;;;;;;;6.43;0.65;;;3.40;99.90;;;;;;5113871;27;20382;-63
2024/01/14 09:04:13;;;;;;;7.05;0.60;;;3.50;99.90;;;;;;5086776;28;20032;-63
2024/01/14 09:06:39;;;;;;;2.47;0.35;;;3.50;99.90;;;;;;5085792;28;20024;-63
2024/01/14 09:09:06;;;;;;;4.75;0.45;;;3.50;99.90;;;;;;5115853;27;20043;-64
2024/01/14 09:11:32;;;;;;;5.90;0.32;;;3.50;99.90;;;;;;5085330;28;20478;-63
2024/01/14 09:13:58;;;;;;;9.45;1.10;;;3.50;99.90;;;;;;5089652;28;20071;-63
2024/01/14 09:16:24;;;;;;;8.70;0.70;;;3.60;99.90;;;;;;5090052;28;20036;-63
2024/01/14 09:18:49;;;;;;;5.32;0.95;;;3.60;99.90;;;;;;5088243;28;20044;-63
2024/01/14 09:21:15;;;;;;;7.07;0.50;;;3.60;99.90;;;;;;5086222;28;20048;-64
2024/01/14 09:23:41;;;;;;;10.77;0.65;;;3.70;99.90;;;;;;5086525;28;21588;-63
2024/01/14 09:26:06;;;;;;;4.82;0.40;;;3.70;99.90;;;;;;5087123;28;20036;-63
2024/01/14 09:28:32;;;;;;;3.58;0.40;;;3.70;99.90;;;;;;5087477;28;20173;-63
2024/01/14 09:30:58;;;;;;;4.03;0.60;;;3.70;99.90;;;;;;5072943;28;20072;-63
2024/01/14 09:33:24;;;;;;;4.38;0.50;;;3.80;99.90;;;;;;5098579;27;20079;-63
2024/01/14 09:35:49;;;;;;;4.47;0.40;;;3.90;99.90;;;;;;5088488;28;20494;-63
2024/01/14 09:38:15;;;;;;;5.13;0.50;;;3.90;99.90;;;;;;5084740;28;20042;-63
2024/01/14 09:40:41;;;;;;;7.63;0.60;;;4.00;99.90;;;;;;5071067;28;20040;-63
2024/01/14 09:43:13;;;;;;;4.78;0.40;;;4.10;99.90;;;;;;5082440;28;20506;-62
2024/01/14 09:45:40;;;;;;;5.70;0.70;;;4.10;99.90;;;;;;5088972;28;20043;-63
2024/01/14 09:48:08;;;;;;;11.82;0.68;;;4.20;99.90;;;;;;5082473;28;20052;-63
2024/01/14 09:50:35;;;;;;;3.55;0.40;;;4.20;99.90;;;;;;5082951;28;20040;-63
2024/01/14 09:53:04;;;;;;;2.10;0.32;;;4.30;99.90;;;;;;5085347;28;20112;-62
2024/01/14 09:55:30;;;;;;;6.25;0.30;;;4.30;99.90;;;;;;5086206;28;20044;-63
2024/01/14 09:57:58;;;;;;;6.40;0.55;;;4.30;99.90;;;;;;5090643;28;20052;-63
2024/01/14 10:00:23;;;;;;;6.25;0.43;;;4.30;99.90;;;;;;5089018;28;20036;-63
2024/01/14 10:02:49;;;;;;;2.63;0.40;;;4.30;99.90;;;;;;5089367;28;20035;-63
2024/01/14 10:05:15;;;;;;;4.72;0.30;;;4.30;99.90;;;;;;5086457;28;20032;-64
2024/01/14 10:07:43;;;;;;;4.75;0.55;;;4.30;99.90;;;;;;5083497;28;20114;-63
2024/01/14 10:10:09;;;;;;;2.33;0.20;;;4.30;99.90;;;;;;5086866;28;20036;-63
2024/01/14 10:12:35;;;;;;;6.15;0.40;;;4.30;99.90;;;;;;5087134;28;20043;-63
2024/01/14 10:15:01;;;;;;;2.78;0.35;;;4.30;99.90;;;;;;5089208;28;20116;-63
2024/01/14 10:17:30;;;;;;;2.67;0.28;;;4.30;99.90;;;;;;5085656;28;20537;-63
2024/01/14 10:19:59;;;;;;;2.90;0.30;;;4.40;99.90;;;;;;5089988;28;20038;-63
2024/01/14 10:22:28;;;;;;;4.68;0.30;;;4.40;99.90;;;;;;5081291;28;20041;-64
2024/01/14 10:24:55;;;;;;;2.60;0.50;;;4.40;99.90;;;;;;5084772;28;20039;-63
2024/01/14 10:27:23;;;;;;;2.10;0.38;;;4.40;99.90;;;;;;5084003;28;20048;-63
2024/01/14 10:29:49;;;;;;;2.83;0.20;;;4.40;99.90;;;;;;5084326;28;20052;-63
2024/01/14 10:32:16;;;;;;;3.13;0.77;;;4.40;99.90;;;;;;5083891;28;20051;-63
2024/01/14 10:34:42;;;;;;;0.85;0.20;;;4.50;99.90;;;;;;5085070;28;20081;-63
2024/01/14 10:37:08;;;;;;;3.60;0.30;;;4.50;99.90;;;;;;5081723;28;20064;-63
2024/01/14 10:39:35;;;;;;;4.20;0.25;;;4.50;99.90;;;;;;5082888;28;20117;-63
2024/01/14 10:42:01;;;;;;;1.70;0.40;;;4.60;99.90;;;;;;5085625;28;20060;-63
2024/01/14 10:44:27;;;;;;;4.53;0.40;;;4.60;99.90;;;;;;5085296;28;20044;-63
2024/01/14 10:46:54;;;;;;;4.40;0.35;;;4.60;99.90;;;;;;5084402;28;20402;-63
2024/01/14 10:49:26;;;;;;;3.58;0.32;;;4.90;99.90;;;;;;5082918;28;20151;-63
2024/01/14 10:52:10;;;;;;;2.78;0.50;;;4.70;99.90;;;;;;5115845;27;20050;-64
2024/01/14 10:54:47;;;;;;;5.40;0.47;;;4.70;99.90;;;;;;5084331;28;20118;-63
2024/01/14 10:57:15;;;;;;;5.07;0.50;;;4.70;99.90;;;;;;5078063;28;20052;-63
2024/01/14 10:59:43;;;;;;;4.55;0.57;;;4.70;99.90;;;;;;5079207;28;20126;-63
2024/01/14 11:02:16;;;;;;;2.00;0.70;;;4.70;99.90;;;;;;5081607;28;20036;-64
2024/01/14 11:04:44;;;;;;;4.70;0.63;;;4.70;99.90;;;;;;5116433;27;20039;-63
2024/01/14 11:07:10;;;;;;;5.68;1.05;;;4.60;99.90;;;;;;5068761;28;20123;-63
2024/01/14 11:09:35;;;;;;;5.43;1.08;;;4.60;99.90;;;;;;5083742;28;20047;-63
2024/01/14 11:12:08;;;;;;;4.45;0.63;;;4.70;99.90;;;;;;5086416;28;20394;-63
2024/01/14 11:14:51;;;;;;;3.17;0.57;;;4.70;99.90;;;;;;5082501;28;20043;-62
2024/01/14 11:17:24;;;;;;;6.97;1.58;;;4.80;99.90;;;;;;5084552;28;20052;-63
2024/01/14 11:19:50;;;;;;;5.18;0.50;;;4.90;99.90;;;;;;5087981;28;20040;-64
2024/01/14 11:22:22;;;;;;;2.85;0.60;;;5.00;99.90;;;;;;5085151;28;20035;-63
2024/01/14 11:24:48;;;;;;;5.60;0.57;;;5.00;99.90;;;;;;5083478;28;20047;-63
2024/01/14 11:27:14;;;;;;;2.85;0.38;;;5.10;99.90;;;;;;5085847;28;20032;-64
2024/01/14 11:29:40;;;;;;;4.35;0.90;;;5.10;99.90;;;;;;5094205;27;20055;-64
2024/01/14 11:32:20;;;;;;;7.00;0.98;;;5.10;99.90;;;;;;5082932;28;20087;-63
2024/01/14 11:34:46;;;;;;;3.38;0.20;;;5.10;99.90;;;;;;5112115;27;20047;-63
2024/01/14 11:37:37;;;;;;;5.15;0.43;;;5.10;99.90;;;;;;5108717;27;20496;-63
2024/01/14 11:40:09;;;;;;;4.68;0.30;;;5.20;99.90;;;;;;5085996;28;20694;-63
2024/01/14 11:42:50;;;;;;;6.13;0.30;;;5.10;99.90;;;;;;5082381;28;20356;-64
2024/01/14 11:45:25;;;;;;;5.00;0.40;;;5.20;99.90;;;;;;5082930;28;20050;-64
2024/01/14 11:47:54;;;;;;;5.15;0.30;;;5.20;99.90;;;;;;5080991;28;20512;-63
2024/01/14 11:50:21;;;;;;;6.90;0.50;;;5.20;99.90;;;;;;5079468;28;20072;-64
2024/01/14 11:52:49;;;;;;;3.42;0.60;;;5.20;99.90;;;;;;5115734;27;20548;-63
2024/01/14 11:55:25;;;;;;;3.17;0.30;;;5.20;99.90;;;;;;5084507;28;20455;-63
2024/01/14 11:57:52;;;;;;;3.42;0.43;;;5.20;99.90;;;;;;5081139;28;20067;-63
2024/01/14 12:00:22;;;;;;;2.58;0.40;;;5.20;99.90;;;;;;5083882;28;20078;-63
2024/01/14 12:03:05;;;;;;;4.57;0.30;;;5.30;99.90;;;;;;5083269;28;20048;-63
2024/01/14 12:05:32;;;;;;;4.45;0.35;;;5.30;99.90;;;;;;5069313;28;20063;-64
2024/01/14 12:08:00;;;;;;;2.28;0.30;;;5.30;99.90;;;;;;5078243;28;20123;-63
2024/01/14 12:10:28;;;;;;;2.15;0.25;;;5.20;99.90;;;;;;5080741;28;20052;-63
2024/01/14 12:12:55;;;;;;;4.60;0.10;;;5.30;99.90;;;;;;5079447;28;20051;-63
2024/01/14 12:15:21;;;;;;;2.25;0.30;;;5.20;99.90;;;;;;5077365;28;20073;-64
2024/01/14 12:17:58;;;;;;;2.97;0.30;;;5.20;99.90;;;;;;5108874;27;20036;-63
2024/01/14 12:20:25;;;;;;;2.63;0.40;;;5.20;99.90;;;;;;5084470;28;20089;-63
2024/01/14 12:22:58;;;;;;;2.75;0.30;;;5.20;99.90;;;;;;5077900;28;20687;-63
2024/01/14 12:25:24;;;;;;;4.22;0.80;;;5.10;99.90;;;;;;5084426;28;20032;-63
2024/01/14 12:27:50;;;;;;;3.40;0.77;;;5.00;99.90;;;;;;5079117;28;20132;-63
2024/01/14 12:30:45;;;;;;;4.50;1.15;;;5.10;99.90;;;;;;5081040;28;20071;-63
2024/01/14 12:33:12;;;;;;;4.65;1.63;;;5.10;99.90;;;;;;5072081;28;20075;-63
2024/01/14 12:35:38;;;;;;;2.42;1.02;;;5.10;99.90;;;;;;5084202;28;20426;-63
2024/01/14 12:38:06;;;;;;;4.55;1.92;;;5.10;99.90;;;;;;5085862;28;20037;-63
2024/01/14 12:40:32;;;;;;;7.68;2.55;;;5.10;99.90;;;;;;5080810;28;20035;-63
2024/01/14 12:42:58;;;;;;;7.60;2.75;;;5.20;99.90;;;;;;5082151;28;20028;-63
2024/01/14 12:45:24;;;;;;;6.35;2.78;;;5.10;99.90;;;;;;5084476;28;20089;-63
2024/01/14 12:48:01;;;;;;;5.97;2.75;;;5.20;99.90;;;;;;5087213;28;20039;-63
2024/01/14 12:50:28;;;;;;;6.75;2.38;;;5.20;99.90;;;;;;5084301;28;20038;-62